sensor_id;sensor_type;location;lat;lon;timestamp;pressure;altitude;pressure_sealevel;temperature;humidity
75383;BME280;77049;52.132;5.426;2024-03-08T00:00:29;101899.06;;;3.81;87.87
75383;BME280;77049;52.132;5.426;2024-03-08T00:02:59;101899.03;;;3.78;87.88
75383;BME280;77049;52.132;5.426;2024-03-08T00:05:27;101892.66;;;3.79;87.79
75383;BME280;77049;52.132;5.426;2024-03-08T00:07:54;101888.84;;;3.73;88.08
75383;BME280;77049;52.132;5.426;2024-03-08T00:10:21;101890.00;;;3.79;87.73
75383;BME280;77049;52.132;5.426;2024-03-08T00:12:50;101891.94;;;3.82;87.57
75383;BME280;77049;52.132;5.426;2024-03-08T00:15:18;101897.53;;;3.77;87.03
75383;BME280;77049;52.132;5.426;2024-03-08T00:17:46;101891.09;;;3.74;87.11
75383;BME280;77049;52.132;5.426;2024-03-08T00:20:15;101886.91;;;3.66;86.98
75383;BME280;77049;52.132;5.426;2024-03-08T00:22:44;101887.66;;;3.66;87.14
75383;BME280;77049;52.132;5.426;2024-03-08T00:25:12;101886.53;;;3.67;87.16
75383;BME280;77049;52.132;5.426;2024-03-08T00:27:39;101885.78;;;3.67;87.13
75383;BME280;77049;52.132;5.426;2024-03-08T00:30:06;101890.69;;;3.68;87.03
75383;BME280;77049;52.132;5.426;2024-03-08T00:32:33;101886.91;;;3.66;86.68
75383;BME280;77049;52.132;5.426;2024-03-08T00:35:00;101888.41;;;3.67;86.59
75383;BME280;77049;52.132;5.426;2024-03-08T00:37:28;101880.50;;;3.67;86.59
75383;BME280;77049;52.132;5.426;2024-03-08T00:39:54;101884.25;;;3.66;86.72
75383;BME280;77049;52.132;5.426;2024-03-08T00:42:21;101877.88;;;3.67;86.49
75383;BME280;77049;52.132;5.426;2024-03-08T00:44:47;101871.06;;;3.62;86.31
75383;BME280;77049;52.132;5.426;2024-03-08T00:47:17;101872.94;;;3.62;86.42
75383;BME280;77049;52.132;5.426;2024-03-08T00:49:44;101868.41;;;3.55;86.28
75383;BME280;77049;52.132;5.426;2024-03-08T00:52:10;101871.41;;;3.57;86.49
75383;BME280;77049;52.132;5.426;2024-03-08T00:54:37;101868.72;;;3.50;86.32
75383;BME280;77049;52.132;5.426;2024-03-08T00:57:04;101870.63;;;3.53;86.44
75383;BME280;77049;52.132;5.426;2024-03-08T00:59:31;101860.84;;;3.54;86.30
75383;BME280;77049;52.132;5.426;2024-03-08T01:02:01;101855.94;;;3.52;86.50
75383;BME280;77049;52.132;5.426;2024-03-08T01:04:28;101845.78;;;3.51;86.45
75383;BME280;77049;52.132;5.426;2024-03-08T01:06:56;101846.91;;;3.50;86.22
75383;BME280;77049;52.132;5.426;2024-03-08T01:09:24;101844.25;;;3.46;86.29
75383;BME280;77049;52.132;5.426;2024-03-08T01:11:50;101828.41;;;3.43;86.47
75383;BME280;77049;52.132;5.426;2024-03-08T01:14:17;101832.16;;;3.42;86.30
75383;BME280;77049;52.132;5.426;2024-03-08T01:16:43;101828.00;;;3.41;86.46
75383;BME280;77049;52.132;5.426;2024-03-08T01:19:10;101822.31;;;3.35;86.13
75383;BME280;77049;52.132;5.426;2024-03-08T01:21:37;101818.94;;;3.34;86.49
75383;BME280;77049;52.132;5.426;2024-03-08T01:24:04;101822.28;;;3.31;86.24
75383;BME280;77049;52.132;5.426;2024-03-08T01:26:31;101806.06;;;3.26;86.22
75383;BME280;77049;52.132;5.426;2024-03-08T01:28:57;101819.63;;;3.28;86.17
75383;BME280;77049;52.132;5.426;2024-03-08T01:31:25;101816.25;;;3.27;86.36
75383;BME280;77049;52.132;5.426;2024-03-08T01:33:52;101804.97;;;3.30;86.19
75383;BME280;77049;52.132;5.426;2024-03-08T01:36:19;101812.84;;;3.27;86.10
75383;BME280;77049;52.132;5.426;2024-03-08T01:38:46;101791.75;;;3.23;85.95
75383;BME280;77049;52.132;5.426;2024-03-08T01:41:13;101791.72;;;3.16;86.06
75383;BME280;77049;52.132;5.426;2024-03-08T01:43:40;101795.44;;;3.12;86.39
75383;BME280;77049;52.132;5.426;2024-03-08T01:46:07;101799.25;;;3.18;86.23
75383;BME280;77049;52.132;5.426;2024-03-08T01:48:35;101789.84;;;3.17;86.20
75383;BME280;77049;52.132;5.426;2024-03-08T01:51:03;101788.72;;;3.18;85.87
75383;BME280;77049;52.132;5.426;2024-03-08T01:53:30;101787.88;;;3.07;85.72
75383;BME280;77049;52.132;5.426;2024-03-08T01:55:58;101779.25;;;3.10;85.96
75383;BME280;77049;52.132;5.426;2024-03-08T01:58:29;101781.84;;;3.06;85.71
75383;BME280;77049;52.132;5.426;2024-03-08T02:00:57;101785.97;;;3.04;86.01
75383;BME280;77049;52.132;5.426;2024-03-08T02:03:24;101776.22;;;3.08;85.61
75383;BME280;77049;52.132;5.426;2024-03-08T02:05:51;101776.63;;;3.10;85.85
75383;BME280;77049;52.132;5.426;2024-03-08T02:08:20;101776.22;;;3.08;85.47
75383;BME280;77049;52.132;5.426;2024-03-08T02:10:49;101775.75;;;2.98;85.45
75383;BME280;77049;52.132;5.426;2024-03-08T02:13:16;101784.31;;;2.88;85.58
75383;BME280;77049;52.132;5.426;2024-03-08T02:15:53;101776.50;;;2.95;85.67
75383;BME280;77049;52.132;5.426;2024-03-08T02:18:20;101768.22;;;2.97;85.50
75383;BME280;77049;52.132;5.426;2024-03-08T02:20:51;101767.13;;;2.98;85.46
75383;BME280;77049;52.132;5.426;2024-03-08T02:23:19;101767.13;;;2.98;85.30
75383;BME280;77049;52.132;5.426;2024-03-08T02:25:46;101762.50;;;2.88;84.87
75383;BME280;77049;52.132;5.426;2024-03-08T02:28:13;101765.44;;;2.79;85.41
75383;BME280;77049;52.132;5.426;2024-03-08T02:30:41;101758.31;;;2.83;85.41
75383;BME280;77049;52.132;5.426;2024-03-08T02:33:08;101753.09;;;2.87;85.43
75383;BME280;77049;52.132;5.426;2024-03-08T02:35:37;101752.31;;;2.83;85.09
75383;BME280;77049;52.132;5.426;2024-03-08T02:38:05;101751.19;;;2.84;84.99
75383;BME280;77049;52.132;5.426;2024-03-08T02:40:31;101747.78;;;2.80;84.87
75383;BME280;77049;52.132;5.426;2024-03-08T02:42:58;101742.09;;;2.74;85.41
75383;BME280;77049;52.132;5.426;2024-03-08T02:45:25;101740.22;;;2.75;85.26
75383;BME280;77049;52.132;5.426;2024-03-08T02:47:51;101739.13;;;2.76;85.22
75383;BME280;77049;52.132;5.426;2024-03-08T02:50:18;101724.50;;;2.78;85.09
75383;BME280;77049;52.132;5.426;2024-03-08T02:52:45;101726.69;;;2.73;84.96
75383;BME280;77049;52.132;5.426;2024-03-08T02:55:13;101724.06;;;2.73;84.57
75383;BME280;77049;52.132;5.426;2024-03-08T02:57:43;101713.91;;;2.71;84.77
75383;BME280;77049;52.132;5.426;2024-03-08T03:00:10;101710.13;;;2.68;84.99
75383;BME280;77049;52.132;5.426;2024-03-08T03:02:37;101723.25;;;2.68;84.73
75383;BME280;77049;52.132;5.426;2024-03-08T03:05:04;101720.25;;;2.66;84.71
75383;BME280;77049;52.132;5.426;2024-03-08T03:07:33;101721.38;;;2.69;84.72
75383;BME280;77049;52.132;5.426;2024-03-08T03:10:02;101708.22;;;2.65;84.56
75383;BME280;77049;52.132;5.426;2024-03-08T03:12:30;101704.03;;;2.61;84.55
75383;BME280;77049;52.132;5.426;2024-03-08T03:14:57;101709.63;;;2.56;84.68
75383;BME280;77049;52.132;5.426;2024-03-08T03:17:24;101703.25;;;2.57;84.62
75383;BME280;77049;52.132;5.426;2024-03-08T03:19:52;101697.59;;;2.55;84.48
75383;BME280;77049;52.132;5.426;2024-03-08T03:22:19;101699.78;;;2.49;84.66
75383;BME280;77049;52.132;5.426;2024-03-08T03:24:46;101699.03;;;2.49;84.41
75383;BME280;77049;52.132;5.426;2024-03-08T03:27:13;101692.25;;;2.48;84.59
75383;BME280;77049;52.132;5.426;2024-03-08T03:29:43;101697.19;;;2.53;84.92
75383;BME280;77049;52.132;5.426;2024-03-08T03:32:13;101689.69;;;2.55;84.58
75383;BME280;77049;52.132;5.426;2024-03-08T03:34:40;101686.66;;;2.53;84.18
75383;BME280;77049;52.132;5.426;2024-03-08T03:37:07;101682.06;;;2.43;84.33
75383;BME280;77049;52.132;5.426;2024-03-08T03:39:35;101680.19;;;2.40;84.19
75383;BME280;77049;52.132;5.426;2024-03-08T03:42:07;101685.78;;;2.38;84.46
75383;BME280;77049;52.132;5.426;2024-03-08T03:44:33;101686.88;;;2.33;84.33
75383;BME280;77049;52.132;5.426;2024-03-08T03:47:00;101683.84;;;2.31;84.42
75383;BME280;77049;52.132;5.426;2024-03-08T03:49:27;101675.53;;;2.26;84.23
75383;BME280;77049;52.132;5.426;2024-03-08T03:51:55;101684.16;;;2.26;84.47
75383;BME280;77049;52.132;5.426;2024-03-08T03:54:21;101680.38;;;2.24;84.42
75383;BME280;77049;52.132;5.426;2024-03-08T03:56:48;101672.84;;;2.22;84.42
75383;BME280;77049;52.132;5.426;2024-03-08T03:59:19;101669.81;;;2.20;84.33
75383;BME280;77049;52.132;5.426;2024-03-08T04:01:45;101669.03;;;2.16;84.44
75383;BME280;77049;52.132;5.426;2024-03-08T04:04:12;101668.31;;;2.19;84.61
75383;BME280;77049;52.132;5.426;2024-03-08T04:06:39;101680.34;;;2.20;84.44
75383;BME280;77049;52.132;5.426;2024-03-08T04:09:05;101672.09;;;2.22;84.36
75383;BME280;77049;52.132;5.426;2024-03-08T04:11:32;101669.13;;;2.23;84.18
75383;BME280;77049;52.132;5.426;2024-03-08T04:13:59;101662.34;;;2.22;84.19
75383;BME280;77049;52.132;5.426;2024-03-08T04:16:26;101664.63;;;2.24;83.96
75383;BME280;77049;52.132;5.426;2024-03-08T04:18:52;101654.81;;;2.21;83.78
75383;BME280;77049;52.132;5.426;2024-03-08T04:21:19;101657.00;;;2.15;83.72
75383;BME280;77049;52.132;5.426;2024-03-08T04:23:46;101657.72;;;2.12;83.87
75383;BME280;77049;52.132;5.426;2024-03-08T04:26:12;101656.94;;;2.08;83.95
75383;BME280;77049;52.132;5.426;2024-03-08T04:28:42;101651.28;;;2.06;83.84
75383;BME280;77049;52.132;5.426;2024-03-08T04:31:08;101656.13;;;2.04;83.92
75383;BME280;77049;52.132;5.426;2024-03-08T04:33:37;101646.38;;;2.05;84.00
75383;BME280;77049;52.132;5.426;2024-03-08T04:36:04;101648.66;;;2.06;83.91
75383;BME280;77049;52.132;5.426;2024-03-08T04:38:31;101647.09;;;2.01;83.74
75383;BME280;77049;52.132;5.426;2024-03-08T04:40:57;101640.31;;;2.00;83.75
75383;BME280;77049;52.132;5.426;2024-03-08T04:43:24;101635.41;;;1.95;84.05
75383;BME280;77049;52.132;5.426;2024-03-08T04:45:53;101649.22;;;1.89;84.13
75383;BME280;77049;52.132;5.426;2024-03-08T04:48:20;101645.13;;;1.91;83.88
75383;BME280;77049;52.132;5.426;2024-03-08T04:50:47;101640.94;;;1.87;83.90
75383;BME280;77049;52.132;5.426;2024-03-08T04:53:13;101642.00;;;1.82;83.94
75383;BME280;77049;52.132;5.426;2024-03-08T04:55:40;101631.16;;;1.84;84.08
75383;BME280;77049;52.132;5.426;2024-03-08T04:58:06;101631.94;;;1.88;84.25
75383;BME280;77049;52.132;5.426;2024-03-08T05:00:34;101631.56;;;1.86;84.05
75383;BME280;77049;52.132;5.426;2024-03-08T05:03:00;101630.66;;;1.75;84.10
75383;BME280;77049;52.132;5.426;2024-03-08T05:05:27;101630.34;;;1.80;84.16
75383;BME280;77049;52.132;5.426;2024-03-08T05:07:55;101631.09;;;1.80;84.05
75383;BME280;77049;52.132;5.426;2024-03-08T05:10:22;101632.97;;;1.80;84.17
75383;BME280;77049;52.132;5.426;2024-03-08T05:12:48;101635.19;;;1.78;84.08
75383;BME280;77049;52.132;5.426;2024-03-08T05:15:16;101635.97;;;1.78;84.08
75383;BME280;77049;52.132;5.426;2024-03-08T05:17:43;101627.69;;;1.76;84.08
75383;BME280;77049;52.132;5.426;2024-03-08T05:20:09;101632.94;;;1.76;83.97
75383;BME280;77049;52.132;5.426;2024-03-08T05:22:39;101634.03;;;1.75;84.15
75383;BME280;77049;52.132;5.426;2024-03-08T05:25:07;101632.13;;;1.72;84.00
75383;BME280;77049;52.132;5.426;2024-03-08T05:27:37;101624.63;;;1.71;84.15
75383;BME280;77049;52.132;5.426;2024-03-08T05:30:04;101620.47;;;1.70;84.11
75383;BME280;77049;52.132;5.426;2024-03-08T05:32:31;101623.81;;;1.66;84.08
75383;BME280;77049;52.132;5.426;2024-03-08T05:34:58;101613.66;;;1.65;84.08
75383;BME280;77049;52.132;5.426;2024-03-08T05:37:26;101618.50;;;1.59;84.29
75383;BME280;77049;52.132;5.426;2024-03-08T05:39:53;101627.50;;;1.62;84.16
75383;BME280;77049;52.132;5.426;2024-03-08T05:42:20;101617.34;;;1.57;84.26
75383;BME280;77049;52.132;5.426;2024-03-08T05:44:47;101614.34;;;1.58;84.29
75383;BME280;77049;52.132;5.426;2024-03-08T05:47:13;101615.13;;;1.59;84.32
75383;BME280;77049;52.132;5.426;2024-03-08T05:49:40;101610.63;;;1.59;84.33
75383;BME280;77049;52.132;5.426;2024-03-08T05:52:07;101610.97;;;1.58;84.24
75383;BME280;77049;52.132;5.426;2024-03-08T05:54:33;101610.22;;;1.57;84.23
75383;BME280;77049;52.132;5.426;2024-03-08T05:57:00;101608.72;;;1.56;83.99
75383;BME280;77049;52.132;5.426;2024-03-08T05:59:27;101602.66;;;1.52;84.29
75383;BME280;77049;52.132;5.426;2024-03-08T06:01:54;101600.03;;;1.52;84.24
75383;BME280;77049;52.132;5.426;2024-03-08T06:04:21;101601.91;;;1.52;84.16
75383;BME280;77049;52.132;5.426;2024-03-08T06:06:47;101591.34;;;1.48;84.31
75383;BME280;77049;52.132;5.426;2024-03-08T06:09:18;101592.56;;;1.54;84.40
75383;BME280;77049;52.132;5.426;2024-03-08T06:11:53;101595.50;;;1.49;84.21
75383;BME280;77049;52.132;5.426;2024-03-08T06:14:21;101584.94;;;1.46;84.33
75383;BME280;77049;52.132;5.426;2024-03-08T06:16:48;101595.84;;;1.48;84.24
75383;BME280;77049;52.132;5.426;2024-03-08T06:19:17;101594.03;;;1.52;84.19
75383;BME280;77049;52.132;5.426;2024-03-08T06:21:43;101589.88;;;1.51;84.21
75383;BME280;77049;52.132;5.426;2024-03-08T06:24:10;101590.94;;;1.46;84.19
75383;BME280;77049;52.132;5.426;2024-03-08T06:26:37;101601.44;;;1.46;84.17
75383;BME280;77049;52.132;5.426;2024-03-08T06:29:05;101594.69;;;1.45;84.25
75383;BME280;77049;52.132;5.426;2024-03-08T06:31:34;101596.19;;;1.46;84.47
75383;BME280;77049;52.132;5.426;2024-03-08T06:34:05;101589.50;;;1.49;84.11
75383;BME280;77049;52.132;5.426;2024-03-08T06:36:35;101589.53;;;1.52;84.26
75383;BME280;77049;52.132;5.426;2024-03-08T06:39:01;101592.56;;;1.54;84.31
75383;BME280;77049;52.132;5.426;2024-03-08T06:41:33;101595.97;;;1.58;84.87
75383;BME280;77049;52.132;5.426;2024-03-08T06:44:03;101588.22;;;1.69;84.77
75383;BME280;77049;52.132;5.426;2024-03-08T06:46:29;101588.97;;;1.70;84.30
75383;BME280;77049;52.132;5.426;2024-03-08T06:48:56;101587.16;;;1.74;84.27
75383;BME280;77049;52.132;5.426;2024-03-08T06:51:23;101586.78;;;1.75;83.95
75383;BME280;77049;52.132;5.426;2024-03-08T06:53:50;101586.06;;;1.78;83.96
75383;BME280;77049;52.132;5.426;2024-03-08T06:56:18;101578.00;;;1.94;84.03
75383;BME280;77049;52.132;5.426;2024-03-08T06:58:45;101583.97;;;1.91;83.55
75383;BME280;77049;52.132;5.426;2024-03-08T07:01:13;101584.19;;;2.12;83.60
75383;BME280;77049;52.132;5.426;2024-03-08T07:03:41;101581.25;;;2.21;82.88
75383;BME280;77049;52.132;5.426;2024-03-08T07:06:11;101578.31;;;2.26;82.71
75383;BME280;77049;52.132;5.426;2024-03-08T07:08:37;101584.34;;;2.30;82.99
75383;BME280;77049;52.132;5.426;2024-03-08T07:11:04;101584.84;;;2.46;82.83
75383;BME280;77049;52.132;5.426;2024-03-08T07:13:30;101583.44;;;2.56;82.05
75383;BME280;77049;52.132;5.426;2024-03-08T07:15:57;101581.53;;;2.53;81.71
75383;BME280;77049;52.132;5.426;2024-03-08T07:18:27;101581.09;;;2.47;81.27
75383;BME280;77049;52.132;5.426;2024-03-08T07:20:56;101577.69;;;2.43;81.65
75383;BME280;77049;52.132;5.426;2024-03-08T07:23:23;101580.09;;;2.59;81.57
75383;BME280;77049;52.132;5.426;2024-03-08T07:26:08;101573.38;;;2.65;81.11
75383;BME280;77049;52.132;5.426;2024-03-08T07:28:34;101566.94;;;2.59;80.38
75383;BME280;77049;52.132;5.426;2024-03-08T07:31:01;101569.56;;;2.59;80.70
75383;BME280;77049;52.132;5.426;2024-03-08T07:33:48;101562.09;;;2.64;80.47
75383;BME280;77049;52.132;5.426;2024-03-08T07:36:17;101561.47;;;2.78;80.67
75383;BME280;77049;52.132;5.426;2024-03-08T07:38:44;101563.72;;;2.83;79.89
75383;BME280;77049;52.132;5.426;2024-03-08T07:41:15;101552.81;;;2.78;79.99
75383;BME280;77049;52.132;5.426;2024-03-08T07:43:41;101552.50;;;2.90;79.85
75383;BME280;77049;52.132;5.426;2024-03-08T07:46:11;101545.34;;;2.87;79.52
75383;BME280;77049;52.132;5.426;2024-03-08T07:48:39;101545.34;;;2.87;79.16
75383;BME280;77049;52.132;5.426;2024-03-08T07:51:07;101549.47;;;2.88;79.15
75383;BME280;77049;52.132;5.426;2024-03-08T07:53:36;101545.41;;;2.97;79.29
75383;BME280;77049;52.132;5.426;2024-03-08T07:56:03;101542.78;;;3.01;78.83
75383;BME280;77049;52.132;5.426;2024-03-08T07:58:31;101547.72;;;3.10;79.02
75383;BME280;77049;52.132;5.426;2024-03-08T08:01:00;101541.78;;;3.27;78.12
75383;BME280;77049;52.132;5.426;2024-03-08T08:03:28;101544.09;;;3.35;78.18
75383;BME280;77049;52.132;5.426;2024-03-08T08:05:55;101525.09;;;4.31;76.72
75383;BME280;77049;52.132;5.426;2024-03-08T08:08:22;101537.25;;;5.51;73.74
75383;BME280;77049;52.132;5.426;2024-03-08T08:10:48;101526.00;;;6.47;70.47
75383;BME280;77049;52.132;5.426;2024-03-08T08:13:16;101532.25;;;7.35;67.73
75383;BME280;77049;52.132;5.426;2024-03-08T08:15:43;101517.53;;;7.88;63.97
75383;BME280;77049;52.132;5.426;2024-03-08T08:18:10;101523.94;;;8.14;62.60
75383;BME280;77049;52.132;5.426;2024-03-08T08:20:37;101521.75;;;8.36;60.99
75383;BME280;77049;52.132;5.426;2024-03-08T08:23:03;101522.22;;;8.94;59.39
75383;BME280;77049;52.132;5.426;2024-03-08T08:25:30;101512.84;;;9.25;57.38
75383;BME280;77049;52.132;5.426;2024-03-08T08:27:57;101513.13;;;9.31;57.70
75383;BME280;77049;52.132;5.426;2024-03-08T08:30:24;101515.88;;;9.96;55.68
75383;BME280;77049;52.132;5.426;2024-03-08T08:32:50;101514.13;;;10.22;54.90
75383;BME280;77049;52.132;5.426;2024-03-08T08:35:17;101500.25;;;10.30;54.26
75383;BME280;77049;52.132;5.426;2024-03-08T08:37:46;101505.47;;;9.85;54.48
75383;BME280;77049;52.132;5.426;2024-03-08T08:40:13;101502.91;;;9.98;54.16
75383;BME280;77049;52.132;5.426;2024-03-08T08:42:44;101493.75;;;9.50;54.21
75383;BME280;77049;52.132;5.426;2024-03-08T08:45:16;101494.50;;;9.15;54.93
75383;BME280;77049;52.132;5.426;2024-03-08T08:47:50;101482.47;;;8.71;55.97
75383;BME280;77049;52.132;5.426;2024-03-08T08:50:16;101490.50;;;8.44;56.63
75383;BME280;77049;52.132;5.426;2024-03-08T08:52:49;101487.13;;;8.20;56.82
75383;BME280;77049;52.132;5.426;2024-03-08T08:55:16;101483.38;;;7.94;57.89
75383;BME280;77049;52.132;5.426;2024-03-08T08:57:47;101489.78;;;7.96;57.52
75383;BME280;77049;52.132;5.426;2024-03-08T09:00:15;101489.03;;;7.96;57.66
75383;BME280;77049;52.132;5.426;2024-03-08T09:02:42;101487.84;;;7.74;57.29
75383;BME280;77049;52.132;5.426;2024-03-08T09:05:09;101470.31;;;7.56;59.32
75383;BME280;77049;52.132;5.426;2024-03-08T09:07:36;101468.13;;;7.75;58.98
75383;BME280;77049;52.132;5.426;2024-03-08T09:10:04;101475.72;;;7.73;58.78
75383;BME280;77049;52.132;5.426;2024-03-08T09:12:33;101462.28;;;7.87;58.87
75383;BME280;77049;52.132;5.426;2024-03-08T09:15:00;101459.50;;;7.94;58.38
75383;BME280;77049;52.132;5.426;2024-03-08T09:17:27;101455.16;;;8.27;58.79
75383;BME280;77049;52.132;5.426;2024-03-08T09:19:53;101455.28;;;8.43;57.94
75383;BME280;77049;52.132;5.426;2024-03-08T09:22:20;101455.69;;;8.42;57.15
75383;BME280;77049;52.132;5.426;2024-03-08T09:24:47;101451.03;;;8.26;57.30
75383;BME280;77049;52.132;5.426;2024-03-08T09:27:14;101451.66;;;8.10;57.73
75383;BME280;77049;52.132;5.426;2024-03-08T09:29:40;101433.31;;;8.19;58.02
75383;BME280;77049;52.132;5.426;2024-03-08T09:32:07;101433.19;;;8.26;57.57
75383;BME280;77049;52.132;5.426;2024-03-08T09:34:34;101441.50;;;8.28;57.26
75383;BME280;77049;52.132;5.426;2024-03-08T09:37:04;101423.88;;;8.18;57.99
75383;BME280;77049;52.132;5.426;2024-03-08T09:39:31;101426.78;;;8.47;58.40
75383;BME280;77049;52.132;5.426;2024-03-08T09:41:59;101430.97;;;8.84;57.68
75383;BME280;77049;52.132;5.426;2024-03-08T09:44:26;101416.00;;;8.94;56.89
75383;BME280;77049;52.132;5.426;2024-03-08T09:46:55;101416.03;;;8.74;56.72
75383;BME280;77049;52.132;5.426;2024-03-08T09:49:22;101408.34;;;8.60;57.13
75383;BME280;77049;52.132;5.426;2024-03-08T09:51:50;101405.78;;;8.92;55.93
75383;BME280;77049;52.132;5.426;2024-03-08T09:54:19;101408.94;;;8.67;56.53
75383;BME280;77049;52.132;5.426;2024-03-08T09:56:51;101393.47;;;8.82;56.69
75383;BME280;77049;52.132;5.426;2024-03-08T09:59:18;101388.75;;;8.90;56.60
75383;BME280;77049;52.132;5.426;2024-03-08T10:01:53;101393.19;;;8.96;56.63
75383;BME280;77049;52.132;5.426;2024-03-08T10:04:22;101388.72;;;9.10;56.83
75383;BME280;77049;52.132;5.426;2024-03-08T10:06:52;101382.66;;;9.25;56.25
75383;BME280;77049;52.132;5.426;2024-03-08T10:09:19;101382.50;;;9.32;55.68
75383;BME280;77049;52.132;5.426;2024-03-08T10:11:47;101384.25;;;9.23;55.54
75383;BME280;77049;52.132;5.426;2024-03-08T10:14:15;101368.97;;;9.27;55.69
75383;BME280;77049;52.132;5.426;2024-03-08T10:16:44;101377.19;;;9.32;55.11
75383;BME280;77049;52.132;5.426;2024-03-08T10:19:13;101372.63;;;9.17;55.57
75383;BME280;77049;52.132;5.426;2024-03-08T10:21:49;101363.19;;;9.16;55.80
75383;BME280;77049;52.132;5.426;2024-03-08T10:24:17;101353.97;;;9.53;55.98
75383;BME280;77049;52.132;5.426;2024-03-08T10:26:43;101338.66;;;9.57;54.15
75383;BME280;77049;52.132;5.426;2024-03-08T10:29:10;101348.88;;;9.42;54.25
75383;BME280;77049;52.132;5.426;2024-03-08T10:31:44;101342.56;;;9.20;55.21
75383;BME280;77049;52.132;5.426;2024-03-08T10:34:11;101333.19;;;9.31;55.78
75383;BME280;77049;52.132;5.426;2024-03-08T10:36:40;101333.16;;;9.64;55.67
75383;BME280;77049;52.132;5.426;2024-03-08T10:39:17;101324.00;;;9.81;53.84
75383;BME280;77049;52.132;5.426;2024-03-08T10:41:53;101321.91;;;10.01;54.38
75383;BME280;77049;52.132;5.426;2024-03-08T10:44:46;101311.06;;;9.96;54.37
75383;BME280;77049;52.132;5.426;2024-03-08T10:47:27;101320.50;;;9.84;53.26
75383;BME280;77049;52.132;5.426;2024-03-08T10:50:20;101306.44;;;9.55;54.36
75383;BME280;77049;52.132;5.426;2024-03-08T10:52:52;101311.13;;;9.63;53.89
75383;BME280;77049;52.132;5.426;2024-03-08T10:55:19;101301.63;;;9.50;54.20
75383;BME280;77049;52.132;5.426;2024-03-08T10:57:47;101303.53;;;9.49;56.12
75383;BME280;77049;52.132;5.426;2024-03-08T11:00:14;101290.59;;;9.80;54.94
75383;BME280;77049;52.132;5.426;2024-03-08T11:02:45;101281.22;;;9.76;54.55
75383;BME280;77049;52.132;5.426;2024-03-08T11:08:18;101285.72;;;9.62;54.45
75383;BME280;77049;52.132;5.426;2024-03-08T11:10:53;101279.78;;;9.58;54.28
75383;BME280;77049;52.132;5.426;2024-03-08T11:13:39;101252.06;;;9.72;54.26
75383;BME280;77049;52.132;5.426;2024-03-08T11:19:06;101249.31;;;9.76;53.51
75383;BME280;77049;52.132;5.426;2024-03-08T11:21:37;101249.50;;;9.68;53.34
75383;BME280;77049;52.132;5.426;2024-03-08T11:24:13;101241.91;;;9.54;53.77
75383;BME280;77049;52.132;5.426;2024-03-08T11:26:40;101243.41;;;9.55;54.49
75383;BME280;77049;52.132;5.426;2024-03-08T11:32:04;101219.59;;;9.64;54.43
75383;BME280;77049;52.132;5.426;2024-03-08T11:34:32;101219.09;;;9.69;54.31
75383;BME280;77049;52.132;5.426;2024-03-08T11:36:59;101207.50;;;9.76;54.20
75383;BME280;77049;52.132;5.426;2024-03-08T11:39:26;101201.88;;;9.74;53.91
75383;BME280;77049;52.132;5.426;2024-03-08T11:41:54;101204.44;;;9.78;54.32
75383;BME280;77049;52.132;5.426;2024-03-08T11:44:21;101198.81;;;9.88;54.27
75383;BME280;77049;52.132;5.426;2024-03-08T11:46:54;101191.91;;;9.91;53.85
75383;BME280;77049;52.132;5.426;2024-03-08T11:49:21;101190.22;;;9.97;53.35
75383;BME280;77049;52.132;5.426;2024-03-08T11:51:51;101183.94;;;9.91;52.85
75383;BME280;77049;52.132;5.426;2024-03-08T11:54:18;101187.22;;;9.82;53.03
75383;BME280;77049;52.132;5.426;2024-03-08T11:56:45;101181.25;;;9.78;53.51
75383;BME280;77049;52.132;5.426;2024-03-08T11:59:15;101168.19;;;9.84;52.92
75383;BME280;77049;52.132;5.426;2024-03-08T12:01:41;101165.09;;;9.85;52.39
75383;BME280;77049;52.132;5.426;2024-03-08T12:04:11;101159.34;;;9.87;51.61
75383;BME280;77049;52.132;5.426;2024-03-08T12:06:40;101187.34;;;9.91;52.02
75383;BME280;77049;52.132;5.426;2024-03-08T12:09:12;101166.16;;;10.00;52.12
75383;BME280;77049;52.132;5.426;2024-03-08T12:11:39;101175.84;;;9.94;51.75
75383;BME280;77049;52.132;5.426;2024-03-08T12:14:06;101145.53;;;9.92;52.16
75383;BME280;77049;52.132;5.426;2024-03-08T12:16:33;101140.22;;;9.92;52.46
75383;BME280;77049;52.132;5.426;2024-03-08T12:19:00;101143.84;;;9.98;51.50
75383;BME280;77049;52.132;5.426;2024-03-08T12:21:26;101152.97;;;9.84;51.43
75383;BME280;77049;52.132;5.426;2024-03-08T12:24:08;101127.00;;;9.76;51.06
75383;BME280;77049;52.132;5.426;2024-03-08T12:26:36;101124.78;;;9.87;51.04
75383;BME280;77049;52.132;5.426;2024-03-08T12:29:16;101124.91;;;9.96;51.54
75383;BME280;77049;52.132;5.426;2024-03-08T12:31:57;101130.00;;;10.03;51.65
75383;BME280;77049;52.132;5.426;2024-03-08T12:34:25;101115.22;;;9.89;50.63
75383;BME280;77049;52.132;5.426;2024-03-08T12:36:54;101112.66;;;9.86;51.12
75383;BME280;77049;52.132;5.426;2024-03-08T12:39:22;101106.06;;;9.90;51.09
75383;BME280;77049;52.132;5.426;2024-03-08T12:41:54;101093.63;;;9.87;51.79
75383;BME280;77049;52.132;5.426;2024-03-08T12:44:21;101100.75;;;9.90;51.25
75383;BME280;77049;52.132;5.426;2024-03-08T12:46:52;101088.84;;;9.82;51.40
75383;BME280;77049;52.132;5.426;2024-03-08T12:49:20;101108.31;;;9.92;51.56
75383;BME280;77049;52.132;5.426;2024-03-08T12:51:50;101091.19;;;9.93;51.00
75383;BME280;77049;52.132;5.426;2024-03-08T12:54:16;101091.06;;;9.84;51.59
75383;BME280;77049;52.132;5.426;2024-03-08T12:56:43;101079.16;;;9.76;51.57
75383;BME280;77049;52.132;5.426;2024-03-08T12:59:09;101102.44;;;9.84;51.76
75383;BME280;77049;52.132;5.426;2024-03-08T13:01:39;101076.28;;;9.83;52.01
75383;BME280;77049;52.132;5.426;2024-03-08T13:04:06;101064.25;;;9.78;51.51
75383;BME280;77049;52.132;5.426;2024-03-08T13:06:37;101075.44;;;9.86;51.52
75383;BME280;77049;52.132;5.426;2024-03-08T13:09:04;101067.25;;;9.80;51.92
75383;BME280;77049;52.132;5.426;2024-03-08T13:11:32;101057.88;;;9.76;51.56
75383;BME280;77049;52.132;5.426;2024-03-08T13:14:04;101071.28;;;9.85;51.88